Time;durP1;ratioP1;P1;durP2;ratioP2;P2;SDS_P1;SDS_P2;PMS_P1;PMS_P2;Temp;Humidity;BMP_temperature;BMP_pressure;BME280_temperature;BME280_humidity;BME280_pressure;Samples;Min_cycle;Max_cycle;Signal;HPM_P1;HPM_P2
2023/12/10 00:01:23;;;;;;;33.15;31.85;;;;;;;;;;5115032;28;20059;-81
2023/12/10 00:03:50;;;;;;;39.20;37.60;;;;;;;;;;5114499;28;20063;-81
2023/12/10 00:06:18;;;;;;;40.33;38.55;;;;;;;;;;5113328;27;20054;-82
2023/12/10 00:08:44;;;;;;;33.90;32.38;;;;;;;;;;5102147;28;20048;-81
2023/12/10 00:11:11;;;;;;;36.10;34.55;;;;;;;;;;5094178;28;20043;-82
2023/12/10 00:13:38;;;;;;;44.20;42.22;;;;;;;;;;5094113;28;20052;-81
2023/12/10 00:16:05;;;;;;;42.35;40.45;;;;;;;;;;5094278;28;20511;-82
2023/12/10 00:18:32;;;;;;;36.92;35.42;;;;;;;;;;5101401;28;20067;-81
2023/12/10 00:20:58;;;;;;;47.47;45.58;;;;;;;;;;5094308;28;20063;-81
2023/12/10 00:23:26;;;;;;;45.38;43.55;;;;;;;;;;5095571;27;20059;-81
2023/12/10 00:25:53;;;;;;;39.15;37.58;;;;;;;;;;5114309;28;20055;-81
2023/12/10 00:28:19;;;;;;;43.80;42.00;;;;;;;;;;5112180;28;20040;-81
2023/12/10 00:30:47;;;;;;;41.28;39.55;;;;;;;;;;5094202;28;20055;-84
2023/12/10 00:33:15;;;;;;;40.20;38.70;;;;;;;;;;5094273;28;20106;-84
2023/12/10 00:35:42;;;;;;;41.78;40.08;;;;;;;;;;5094876;28;20581;-83
2023/12/10 00:38:08;;;;;;;44.92;42.90;;;;;;;;;;5099275;28;20488;-83
2023/12/10 00:40:36;;;;;;;37.53;36.00;;;;;;;;;;5098022;28;20079;-83
2023/12/10 00:43:03;;;;;;;39.50;37.70;;;;;;;;;;5108724;27;20043;-85
2023/12/10 00:45:29;;;;;;;31.13;29.80;;;;;;;;;;5118392;28;20044;-84
2023/12/10 00:47:56;;;;;;;40.00;38.47;;;;;;;;;;5114148;28;20058;-83
2023/12/10 00:50:22;;;;;;;39.53;37.83;;;;;;;;;;5100987;28;20048;-82
2023/12/10 00:52:49;;;;;;;42.70;40.90;;;;;;;;;;5093208;28;20048;-82
2023/12/10 00:55:16;;;;;;;33.67;32.33;;;;;;;;;;5093460;28;20051;-82
2023/12/10 00:57:43;;;;;;;36.95;35.45;;;;;;;;;;5093043;28;20056;-82
2023/12/10 01:00:11;;;;;;;37.35;35.45;;;;;;;;;;5106641;28;20048;-82
2023/12/10 01:02:37;;;;;;;21.85;20.95;;;;;;;;;;5113380;28;20412;-82
2023/12/10 01:05:05;;;;;;;34.72;32.97;;;;;;;;;;5113365;28;20044;-82
2023/12/10 01:07:32;;;;;;;35.35;33.95;;;;;;;;;;5112930;28;20070;-82
2023/12/10 01:09:58;;;;;;;45.80;44.10;;;;;;;;;;5110772;28;20057;-82
2023/12/10 01:12:25;;;;;;;37.97;36.50;;;;;;;;;;5093021;28;20048;-81
2023/12/10 01:14:53;;;;;;;35.78;34.30;;;;;;;;;;5093259;28;20051;-82
2023/12/10 01:17:19;;;;;;;42.10;40.25;;;;;;;;;;5098430;28;20035;-82
2023/12/10 01:19:47;;;;;;;40.55;38.90;;;;;;;;;;5112813;28;20052;-82
2023/12/10 01:22:14;;;;;;;38.08;36.58;;;;;;;;;;5094873;28;20734;-82
2023/12/10 01:24:41;;;;;;;36.15;34.78;;;;;;;;;;5092765;28;20047;-82
2023/12/10 01:27:08;;;;;;;18.80;18.00;;;;;;;;;;5092992;28;20454;-82
2023/12/10 01:29:34;;;;;;;23.35;21.88;;;;;;;;;;5093452;28;20404;-85
2023/12/10 01:32:02;;;;;;;39.88;38.35;;;;;;;;;;5102411;27;21075;-86
2023/12/10 01:34:29;;;;;;;45.70;43.85;;;;;;;;;;5114132;28;20488;-86
2023/12/10 01:36:56;;;;;;;39.53;37.85;;;;;;;;;;5118267;28;20047;-86
2023/12/10 01:39:22;;;;;;;36.45;35.00;;;;;;;;;;5113596;28;20059;-86
2023/12/10 01:41:49;;;;;;;29.42;27.92;;;;;;;;;;5104314;28;20044;-86
2023/12/10 01:44:15;;;;;;;35.97;34.58;;;;;;;;;;5103739;27;20044;-87
2023/12/10 01:46:43;;;;;;;30.50;29.27;;;;;;;;;;5094737;28;20047;-86
2023/12/10 01:49:12;;;;;;;34.75;33.35;;;;;;;;;;5104743;28;20051;-86
2023/12/10 01:51:38;;;;;;;34.90;33.38;;;;;;;;;;5101298;28;20047;-88
2023/12/10 01:54:06;;;;;;;37.75;36.08;;;;;;;;;;5093770;28;20043;-88
2023/12/10 01:56:33;;;;;;;33.35;31.58;;;;;;;;;;5094015;28;20105;-87
2023/12/10 01:59:00;;;;;;;28.98;27.88;;;;;;;;;;5093882;28;20044;-87
2023/12/10 02:01:27;;;;;;;44.00;42.40;;;;;;;;;;5098641;28;20043;-85
2023/12/10 02:03:54;;;;;;;30.50;29.10;;;;;;;;;;5113023;28;20048;-84
2023/12/10 02:06:25;;;;;;;35.10;33.70;;;;;;;;;;5113130;28;20039;-85
2023/12/10 02:08:51;;;;;;;26.27;25.17;;;;;;;;;;5112876;28;20067;-84
2023/12/10 02:11:18;;;;;;;31.48;30.15;;;;;;;;;;5112322;28;20050;-85
2023/12/10 02:13:45;;;;;;;30.50;29.02;;;;;;;;;;5098057;28;20048;-85
2023/12/10 02:16:12;;;;;;;30.40;29.17;;;;;;;;;;5093056;28;20043;-84
2023/12/10 02:18:39;;;;;;;32.10;30.55;;;;;;;;;;5110189;28;20051;-84
2023/12/10 02:21:05;;;;;;;29.80;28.45;;;;;;;;;;5112969;28;20051;-85
2023/12/10 02:23:37;;;;;;;31.95;30.42;;;;;;;;;;5102505;28;20428;-84
2023/12/10 02:26:05;;;;;;;25.95;24.40;;;;;;;;;;5092772;28;20408;-85
2023/12/10 02:28:32;;;;;;;29.27;27.85;;;;;;;;;;5092553;28;20044;-85
2023/12/10 02:30:59;;;;;;;26.83;25.63;;;;;;;;;;5092564;28;20492;-85
2023/12/10 02:33:25;;;;;;;15.77;14.98;;;;;;;;;;5100009;28;20427;-85
2023/12/10 02:35:52;;;;;;;27.92;26.48;;;;;;;;;;5104384;28;20051;-85
2023/12/10 02:38:21;;;;;;;30.08;28.40;;;;;;;;;;5112939;28;20051;-85
2023/12/10 02:40:47;;;;;;;31.15;29.27;;;;;;;;;;5112708;28;20051;-85
2023/12/10 02:43:16;;;;;;;25.33;24.30;;;;;;;;;;5111441;28;20063;-85
2023/12/10 02:45:43;;;;;;;33.58;32.05;;;;;;;;;;5099584;28;20048;-85
2023/12/10 02:48:09;;;;;;;34.67;33.13;;;;;;;;;;5113165;28;20714;-85
2023/12/10 02:50:36;;;;;;;29.15;27.88;;;;;;;;;;5112968;28;20056;-85
2023/12/10 02:53:03;;;;;;;29.92;28.50;;;;;;;;;;5111812;28;20058;-85
2023/12/10 02:55:29;;;;;;;31.52;30.02;;;;;;;;;;5096477;28;20044;-85
2023/12/10 02:57:55;;;;;;;27.88;26.42;;;;;;;;;;5092509;28;20484;-85
2023/12/10 03:00:23;;;;;;;31.00;29.42;;;;;;;;;;5095881;28;20050;-85
2023/12/10 03:02:49;;;;;;;29.90;28.63;;;;;;;;;;5112658;28;20113;-85
2023/12/10 03:05:16;;;;;;;29.73;28.50;;;;;;;;;;5100381;28;20489;-84
2023/12/10 03:07:43;;;;;;;15.88;15.15;;;;;;;;;;5092100;28;20412;-84
2023/12/10 03:10:10;;;;;;;32.35;30.75;;;;;;;;;;5093893;28;20044;-85
2023/12/10 03:12:36;;;;;;;26.50;25.50;;;;;;;;;;5093312;28;20075;-84
2023/12/10 03:15:03;;;;;;;30.33;28.48;;;;;;;;;;5100062;28;20059;-85
2023/12/10 03:17:31;;;;;;;29.83;28.33;;;;;;;;;;5097168;28;20055;-85
2023/12/10 03:19:57;;;;;;;32.38;30.77;;;;;;;;;;5112747;28;20052;-85
2023/12/10 03:22:24;;;;;;;34.45;32.92;;;;;;;;;;5112995;28;20059;-85
2023/12/10 03:24:51;;;;;;;32.25;30.63;;;;;;;;;;5112013;28;20484;-85
2023/12/10 03:27:17;;;;;;;31.55;30.17;;;;;;;;;;5093054;28;20528;-85
2023/12/10 03:29:44;;;;;;;31.58;30.42;;;;;;;;;;5094108;28;20056;-85
2023/12/10 03:32:10;;;;;;;28.17;27.08;;;;;;;;;;5095669;28;20048;-85
2023/12/10 03:34:38;;;;;;;32.63;31.38;;;;;;;;;;5099743;28;20492;-85
2023/12/10 03:37:05;;;;;;;32.45;30.83;;;;;;;;;;5099358;28;20499;-85
2023/12/10 03:39:32;;;;;;;28.27;26.98;;;;;;;;;;5095382;28;20047;-85
2023/12/10 03:41:58;;;;;;;37.92;36.38;;;;;;;;;;5095436;28;20048;-85
2023/12/10 03:44:25;;;;;;;28.95;27.50;;;;;;;;;;5095368;28;20048;-85
2023/12/10 03:46:51;;;;;;;34.00;32.42;;;;;;;;;;5111137;28;20058;-85
2023/12/10 03:49:18;;;;;;;29.13;27.85;;;;;;;;;;5115452;28;20047;-86
2023/12/10 03:51:46;;;;;;;32.35;30.92;;;;;;;;;;5115468;28;20485;-85
2023/12/10 03:54:13;;;;;;;31.23;29.75;;;;;;;;;;5115752;28;20514;-86
2023/12/10 03:56:39;;;;;;;30.27;28.92;;;;;;;;;;5107900;28;20044;-86
2023/12/10 03:59:06;;;;;;;31.65;29.92;;;;;;;;;;5095600;28;20051;-86
2023/12/10 04:01:32;;;;;;;29.92;28.52;;;;;;;;;;5095708;28;20052;-86
2023/12/10 04:03:59;;;;;;;27.35;25.65;;;;;;;;;;5097771;28;20480;-85
2023/12/10 04:06:26;;;;;;;27.40;26.27;;;;;;;;;;5113053;28;20047;-86
2023/12/10 04:08:55;;;;;;;29.08;27.73;;;;;;;;;;5094552;28;20076;-86
2023/12/10 04:11:24;;;;;;;32.38;31.08;;;;;;;;;;5094772;28;20048;-86
2023/12/10 04:13:50;;;;;;;31.02;29.75;;;;;;;;;;5095282;28;20056;-87
2023/12/10 04:16:24;;;;;;;29.35;28.00;;;;;;;;;;5102357;28;20484;-87
2023/12/10 04:18:50;;;;;;;29.85;28.23;;;;;;;;;;5099402;28;20055;-87
2023/12/10 04:21:18;;;;;;;30.67;29.38;;;;;;;;;;5098757;28;20059;-87
2023/12/10 04:23:45;;;;;;;31.92;30.40;;;;;;;;;;5116808;28;20054;-87
2023/12/10 04:26:13;;;;;;;32.88;31.27;;;;;;;;;;5114565;28;20506;-86
2023/12/10 04:28:39;;;;;;;32.42;30.98;;;;;;;;;;5100706;28;20048;-84
2023/12/10 04:31:06;;;;;;;31.48;30.08;;;;;;;;;;5094444;28;20048;-85
2023/12/10 04:33:33;;;;;;;23.55;22.45;;;;;;;;;;5094333;28;20059;-85
2023/12/10 04:35:59;;;;;;;24.70;23.67;;;;;;;;;;5094253;28;20048;-86
2023/12/10 04:38:26;;;;;;;14.00;13.05;;;;;;;;;;5103208;28;20408;-86
2023/12/10 04:40:52;;;;;;;21.70;20.70;;;;;;;;;;5113875;27;20047;-86
2023/12/10 04:43:20;;;;;;;24.13;22.98;;;;;;;;;;5120336;28;20052;-86
2023/12/10 04:45:47;;;;;;;23.55;22.38;;;;;;;;;;5117003;28;20044;-87
2023/12/10 04:48:14;;;;;;;22.48;21.27;;;;;;;;;;5116605;28;20050;-86
2023/12/10 04:50:41;;;;;;;20.40;19.38;;;;;;;;;;5102898;28;20052;-86
2023/12/10 04:53:08;;;;;;;19.13;18.25;;;;;;;;;;5093919;28;20101;-86
2023/12/10 04:55:34;;;;;;;27.45;26.40;;;;;;;;;;5095717;28;20055;-87
2023/12/10 04:58:01;;;;;;;24.08;22.83;;;;;;;;;;5103389;28;20050;-84
2023/12/10 05:00:29;;;;;;;17.33;16.48;;;;;;;;;;5094975;28;20492;-85
2023/12/10 05:02:55;;;;;;;24.08;22.73;;;;;;;;;;5098220;28;20044;-84
2023/12/10 05:05:22;;;;;;;24.05;22.73;;;;;;;;;;5123606;28;20492;-86
2023/12/10 05:07:49;;;;;;;25.85;24.33;;;;;;;;;;5118133;28;20047;-81
2023/12/10 05:10:15;;;;;;;26.10;24.58;;;;;;;;;;5099758;28;20048;-85
2023/12/10 05:12:42;;;;;;;22.25;21.08;;;;;;;;;;5093652;28;20055;-84
2023/12/10 05:15:09;;;;;;;23.98;22.65;;;;;;;;;;5093766;28;20052;-83
2023/12/10 05:17:37;;;;;;;30.27;28.40;;;;;;;;;;5102727;28;20047;-84
2023/12/10 05:20:05;;;;;;;17.90;17.10;;;;;;;;;;5110359;28;20044;-84
2023/12/10 05:22:31;;;;;;;24.20;22.92;;;;;;;;;;5102173;28;20056;-84
2023/12/10 05:24:58;;;;;;;25.17;23.92;;;;;;;;;;5101867;28;20056;-84
2023/12/10 05:27:25;;;;;;;21.92;20.92;;;;;;;;;;5102860;28;20058;-83
2023/12/10 05:29:52;;;;;;;21.52;20.20;;;;;;;;;;5108779;28;20507;-84
2023/12/10 05:32:18;;;;;;;19.92;18.40;;;;;;;;;;5095677;28;20052;-81
2023/12/10 05:34:46;;;;;;;27.70;26.42;;;;;;;;;;5103806;28;20050;-81
2023/12/10 05:37:13;;;;;;;22.73;21.45;;;;;;;;;;5114653;28;20048;-83
2023/12/10 05:39:39;;;;;;;22.15;21.05;;;;;;;;;;5120158;28;20047;-84
2023/12/10 05:42:07;;;;;;;19.15;18.05;;;;;;;;;;5100535;28;20070;-83
2023/12/10 05:44:33;;;;;;;27.52;26.15;;;;;;;;;;5097854;28;20055;-84
2023/12/10 05:47:00;;;;;;;24.58;23.52;;;;;;;;;;5097652;28;20122;-83
2023/12/10 05:49:27;;;;;;;22.90;21.75;;;;;;;;;;5110199;28;20054;-84
2023/12/10 05:51:55;;;;;;;22.77;21.58;;;;;;;;;;5100962;28;20058;-84
2023/12/10 05:54:21;;;;;;;20.50;19.25;;;;;;;;;;5095469;28;20055;-83
2023/12/10 05:56:48;;;;;;;17.55;16.70;;;;;;;;;;5094829;28;20070;-83
2023/12/10 05:59:15;;;;;;;19.95;19.13;;;;;;;;;;5094594;28;20058;-83
2023/12/10 06:01:42;;;;;;;20.85;19.45;;;;;;;;;;5102351;28;20044;-83
2023/12/10 06:04:09;;;;;;;21.88;20.75;;;;;;;;;;5100346;28;20059;-84
2023/12/10 06:06:35;;;;;;;18.63;17.75;;;;;;;;;;5113330;28;20053;-84
2023/12/10 06:09:03;;;;;;;21.70;20.52;;;;;;;;;;5118477;28;20404;-83
2023/12/10 06:11:30;;;;;;;27.83;25.83;;;;;;;;;;5112225;28;20044;-83
2023/12/10 06:13:56;;;;;;;21.25;20.20;;;;;;;;;;5097636;28;20070;-83
2023/12/10 06:16:23;;;;;;;19.63;18.25;;;;;;;;;;5098478;28;20051;-83
2023/12/10 06:18:50;;;;;;;18.52;17.48;;;;;;;;;;5101929;28;20047;-86
2023/12/10 06:21:16;;;;;;;18.27;17.23;;;;;;;;;;5117137;28;20146;-87
2023/12/10 06:23:43;;;;;;;17.63;16.90;;;;;;;;;;5120471;28;20044;-83
2023/12/10 06:26:11;;;;;;;19.25;18.23;;;;;;;;;;5112481;28;20130;-83
2023/12/10 06:28:38;;;;;;;17.77;16.85;;;;;;;;;;5112261;28;20090;-83
2023/12/10 06:31:05;;;;;;;21.38;19.90;;;;;;;;;;5111661;28;20488;-83
2023/12/10 06:33:31;;;;;;;28.90;27.35;;;;;;;;;;5096922;28;20408;-82
2023/12/10 06:35:58;;;;;;;20.15;19.15;;;;;;;;;;5101220;28;20043;-82
2023/12/10 06:38:24;;;;;;;12.80;11.95;;;;;;;;;;5104113;28;20401;-82
2023/12/10 06:40:51;;;;;;;21.10;19.98;;;;;;;;;;5102157;28;20047;-83
2023/12/10 06:43:21;;;;;;;21.73;20.73;;;;;;;;;;5106974;28;20048;-82
2023/12/10 06:45:48;;;;;;;20.50;19.50;;;;;;;;;;5100339;28;20048;-83
2023/12/10 06:48:14;;;;;;;21.20;20.27;;;;;;;;;;5103152;28;20051;-82
2023/12/10 06:50:41;;;;;;;27.70;26.38;;;;;;;;;;5110869;28;20047;-81
2023/12/10 06:53:08;;;;;;;23.60;22.70;;;;;;;;;;5105198;28;20051;-82
2023/12/10 06:55:34;;;;;;;17.95;13.27;;;;;;;;;;5091711;28;20052;-82
2023/12/10 06:58:02;;;;;;;14.57;13.70;;;;;;;;;;5091886;28;20044;-82
2023/12/10 07:00:30;;;;;;;10.77;9.85;;;;;;;;;;5091881;28;20052;-82
2023/12/10 07:02:57;;;;;;;15.82;14.73;;;;;;;;;;5099522;28;20071;-82
2023/12/10 07:05:24;;;;;;;9.40;8.55;;;;;;;;;;5093903;27;20499;-81
2023/12/10 07:07:50;;;;;;;14.07;12.00;;;;;;;;;;5113815;28;20132;-83
2023/12/10 07:10:17;;;;;;;11.10;10.40;;;;;;;;;;5111850;27;20052;-77
2023/12/10 07:12:43;;;;;;;8.77;8.07;;;;;;;;;;5112600;28;20380;-80
2023/12/10 07:15:10;;;;;;;12.55;11.57;;;;;;;;;;5100439;28;20052;-80
2023/12/10 07:17:38;;;;;;;14.20;13.07;;;;;;;;;;5106223;27;20069;-83
2023/12/10 07:20:06;;;;;;;9.88;8.98;;;;;;;;;;5116517;28;20047;-84
2023/12/10 07:22:35;;;;;;;12.60;11.43;;;;;;;;;;5116167;28;20055;-80
2023/12/10 07:25:04;;;;;;;11.57;11.00;;;;;;;;;;5102239;28;20048;-81
2023/12/10 07:27:31;;;;;;;7.10;6.57;;;;;;;;;;5095049;28;20066;-82
2023/12/10 07:29:57;;;;;;;10.80;10.10;;;;;;;;;;5095091;28;20074;-80
2023/12/10 07:32:24;;;;;;;14.05;12.20;;;;;;;;;;5095869;28;20522;-78
2023/12/10 07:34:52;;;;;;;15.93;13.82;;;;;;;;;;5107321;27;20067;-80
2023/12/10 07:37:18;;;;;;;13.00;12.07;;;;;;;;;;5106578;28;20050;-80
2023/12/10 07:39:46;;;;;;;15.52;14.25;;;;;;;;;;5115089;28;20058;-80
2023/12/10 07:42:12;;;;;;;17.65;15.48;;;;;;;;;;5115917;28;20051;-80
2023/12/10 07:44:39;;;;;;;15.45;13.55;;;;;;;;;;5111615;28;20051;-81
2023/12/10 07:47:05;;;;;;;12.73;11.68;;;;;;;;;;5094304;28;20048;-81
2023/12/10 07:49:32;;;;;;;15.57;14.32;;;;;;;;;;5093630;28;20462;-80
2023/12/10 07:52:00;;;;;;;17.23;16.13;;;;;;;;;;5115545;27;20043;-80
2023/12/10 07:54:27;;;;;;;16.10;14.80;;;;;;;;;;5115382;28;20047;-80
2023/12/10 07:56:53;;;;;;;11.52;10.93;;;;;;;;;;5108589;28;20054;-79
2023/12/10 07:59:20;;;;;;;13.00;11.88;;;;;;;;;;5115415;28;20044;-80
2023/12/10 08:01:46;;;;;;;13.63;12.07;;;;;;;;;;5098398;28;20056;-79
2023/12/10 08:04:13;;;;;;;17.63;16.13;;;;;;;;;;5109659;28;20048;-78
2023/12/10 08:06:39;;;;;;;9.00;8.27;;;;;;;;;;5111406;28;20419;-79
2023/12/10 08:09:07;;;;;;;16.10;15.13;;;;;;;;;;5115225;28;20043;-79
2023/12/10 08:11:35;;;;;;;13.63;12.50;;;;;;;;;;5115139;28;20102;-80
2023/12/10 08:14:01;;;;;;;17.92;15.20;;;;;;;;;;5110547;28;20063;-79
2023/12/10 08:16:28;;;;;;;18.45;17.00;;;;;;;;;;5110448;28;20108;-80
2023/12/10 08:18:55;;;;;;;15.45;14.35;;;;;;;;;;5115089;28;20047;-79
2023/12/10 08:21:21;;;;;;;13.63;9.70;;;;;;;;;;5099766;28;20428;-80
2023/12/10 08:23:48;;;;;;;20.98;19.35;;;;;;;;;;5111621;28;20043;-80
2023/12/10 08:26:16;;;;;;;19.02;17.70;;;;;;;;;;5105246;28;20039;-79
2023/12/10 08:28:43;;;;;;;19.02;17.33;;;;;;;;;;5114724;28;20054;-80
2023/12/10 08:31:09;;;;;;;21.10;19.67;;;;;;;;;;5114393;28;20059;-81
2023/12/10 08:33:36;;;;;;;20.05;18.55;;;;;;;;;;5096724;28;20048;-81
2023/12/10 08:36:03;;;;;;;29.92;23.27;;;;;;;;;;5104530;28;20040;-81
2023/12/10 08:38:30;;;;;;;17.45;16.10;;;;;;;;;;5114187;28;20114;-80
2023/12/10 08:40:57;;;;;;;20.88;19.08;;;;;;;;;;5114536;28;20492;-81
2023/12/10 08:43:25;;;;;;;20.58;19.38;;;;;;;;;;5103416;28;20048;-81
2023/12/10 08:45:52;;;;;;;19.08;17.30;;;;;;;;;;5105475;28;20047;-79
2023/12/10 08:48:18;;;;;;;21.17;19.33;;;;;;;;;;5105966;28;20052;-80
2023/12/10 08:50:45;;;;;;;27.15;24.90;;;;;;;;;;5103728;28;20048;-80
2023/12/10 08:53:11;;;;;;;21.88;20.25;;;;;;;;;;5108718;28;20054;-81
2023/12/10 08:55:38;;;;;;;24.50;22.42;;;;;;;;;;5113496;28;20051;-81
2023/12/10 08:58:04;;;;;;;24.67;22.65;;;;;;;;;;5106886;28;20047;-80
2023/12/10 09:00:32;;;;;;;24.92;23.05;;;;;;;;;;5113423;28;20420;-81
2023/12/10 09:02:59;;;;;;;21.85;20.00;;;;;;;;;;5112999;28;20043;-80
2023/12/10 09:05:26;;;;;;;25.42;23.35;;;;;;;;;;5113301;28;20054;-80
2023/12/10 09:07:52;;;;;;;22.10;20.35;;;;;;;;;;5101235;28;20192;-81
2023/12/10 09:10:19;;;;;;;24.15;22.40;;;;;;;;;;5112792;28;20422;-81
2023/12/10 09:12:45;;;;;;;24.25;22.42;;;;;;;;;;5113051;28;20039;-80
2023/12/10 09:15:12;;;;;;;22.00;20.73;;;;;;;;;;5098523;28;20052;-81
2023/12/10 09:17:39;;;;;;;20.58;19.23;;;;;;;;;;5110387;28;20058;-81
2023/12/10 09:20:06;;;;;;;20.65;19.45;;;;;;;;;;5113440;28;20116;-80
2023/12/10 09:22:32;;;;;;;19.92;18.33;;;;;;;;;;5112719;28;20052;-81
2023/12/10 09:24:59;;;;;;;22.25;20.38;;;;;;;;;;5100373;28;20052;-80
2023/12/10 09:27:26;;;;;;;25.20;22.75;;;;;;;;;;5108148;28;20054;-79
2023/12/10 09:29:52;;;;;;;22.50;20.85;;;;;;;;;;5103628;28;20050;-80
2023/12/10 09:32:23;;;;;;;13.85;12.57;;;;;;;;;;5112596;28;20412;-80
2023/12/10 09:34:51;;;;;;;21.52;19.75;;;;;;;;;;5110453;28;20048;-80
2023/12/10 09:37:17;;;;;;;27.30;25.00;;;;;;;;;;5113047;28;20055;-79
2023/12/10 09:39:44;;;;;;;16.30;14.45;;;;;;;;;;5105360;28;20385;-80
2023/12/10 09:42:11;;;;;;;31.83;29.00;;;;;;;;;;5112823;28;20093;-80
2023/12/10 09:44:37;;;;;;;29.48;26.70;;;;;;;;;;5112801;28;20055;-79
2023/12/10 09:47:08;;;;;;;21.08;20.05;;;;;;;;;;5112744;28;20070;-80
2023/12/10 09:49:37;;;;;;;28.90;26.75;;;;;;;;;;5108584;28;20051;-79
2023/12/10 09:52:05;;;;;;;28.17;25.55;;;;;;;;;;5111793;28;20125;-80
2023/12/10 09:54:32;;;;;;;26.60;24.58;;;;;;;;;;5112286;28;20043;-79
2023/12/10 09:56:59;;;;;;;27.48;25.08;;;;;;;;;;5099353;28;20415;-80
2023/12/10 09:59:25;;;;;;;26.40;24.38;;;;;;;;;;5104050;28;20560;-79
2023/12/10 10:01:53;;;;;;;24.88;22.88;;;;;;;;;;5103368;28;20047;-79
2023/12/10 10:04:20;;;;;;;28.13;25.75;;;;;;;;;;5103846;28;20104;-80
2023/12/10 10:06:47;;;;;;;35.20;32.80;;;;;;;;;;5104337;28;20044;-80
2023/12/10 10:09:15;;;;;;;25.25;23.83;;;;;;;;;;5108829;28;20147;-80
2023/12/10 10:11:41;;;;;;;21.88;19.88;;;;;;;;;;5112190;28;20404;-80
2023/12/10 10:14:09;;;;;;;24.25;22.67;;;;;;;;;;5112168;28;20055;-79
2023/12/10 10:16:36;;;;;;;22.40;21.48;;;;;;;;;;5102916;28;20044;-79
2023/12/10 10:19:03;;;;;;;22.83;21.42;;;;;;;;;;5105046;28;20051;-79
2023/12/10 10:21:30;;;;;;;22.95;21.58;;;;;;;;;;5105328;28;20480;-80
2023/12/10 10:23:57;;;;;;;24.08;22.92;;;;;;;;;;5105345;28;20066;-79
2023/12/10 10:26:25;;;;;;;24.92;23.65;;;;;;;;;;5105076;28;20050;-80
2023/12/10 10:28:52;;;;;;;29.65;27.48;;;;;;;;;;5105434;28;20052;-79
2023/12/10 10:31:19;;;;;;;24.58;23.48;;;;;;;;;;5103843;28;20966;-78
2023/12/10 10:33:46;;;;;;;23.90;22.55;;;;;;;;;;5091406;28;20051;-79
2023/12/10 10:36:13;;;;;;;26.13;24.80;;;;;;;;;;5112108;28;20047;-79
2023/12/10 10:38:41;;;;;;;27.88;26.33;;;;;;;;;;5114132;28;20047;-80
2023/12/10 10:41:08;;;;;;;23.08;22.08;;;;;;;;;;5115676;28;20110;-79
2023/12/10 10:43:36;;;;;;;26.90;25.55;;;;;;;;;;5096707;28;20454;-78
2023/12/10 10:46:02;;;;;;;23.60;22.52;;;;;;;;;;5099741;28;20055;-78
2023/12/10 10:48:31;;;;;;;23.00;22.00;;;;;;;;;;5116442;28;20050;-78
2023/12/10 10:50:58;;;;;;;20.85;19.90;;;;;;;;;;5115795;28;20047;-79
2023/12/10 10:53:25;;;;;;;19.83;18.83;;;;;;;;;;5101260;28;20055;-78
2023/12/10 10:55:52;;;;;;;19.00;18.20;;;;;;;;;;5096053;28;20052;-78
2023/12/10 10:58:27;;;;;;;23.83;22.83;;;;;;;;;;5096320;28;20048;-79
2023/12/10 11:00:55;;;;;;;22.40;21.40;;;;;;;;;;5096579;28;20075;-79
2023/12/10 11:03:21;;;;;;;21.70;20.85;;;;;;;;;;5110508;28;20043;-80
2023/12/10 11:05:48;;;;;;;19.00;18.20;;;;;;;;;;5116196;28;20055;-79
2023/12/10 11:08:15;;;;;;;26.95;25.80;;;;;;;;;;5116234;28;20044;-79
2023/12/10 11:10:43;;;;;;;19.10;18.20;;;;;;;;;;5115866;28;20056;-80
2023/12/10 11:13:10;;;;;;;19.38;18.52;;;;;;;;;;5109334;28;20044;-79
2023/12/10 11:15:36;;;;;;;27.80;26.63;;;;;;;;;;5095452;28;20039;-79
2023/12/10 11:18:05;;;;;;;23.45;22.35;;;;;;;;;;5095694;28;20044;-80
2023/12/10 11:20:32;;;;;;;24.52;23.45;;;;;;;;;;5096849;28;20044;-80
2023/12/10 11:22:58;;;;;;;25.80;24.70;;;;;;;;;;5105818;28;20062;-81
2023/12/10 11:25:25;;;;;;;26.00;24.80;;;;;;;;;;5094420;28;20048;-80
2023/12/10 11:27:52;;;;;;;20.58;19.67;;;;;;;;;;5094980;28;20477;-78
2023/12/10 11:30:18;;;;;;;25.38;24.35;;;;;;;;;;5095173;28;20450;-78
2023/12/10 11:32:45;;;;;;;20.35;19.48;;;;;;;;;;5098684;28;20035;-78
2023/12/10 11:35:14;;;;;;;21.27;20.38;;;;;;;;;;5098085;28;20040;-79
2023/12/10 11:37:40;;;;;;;26.58;25.38;;;;;;;;;;5096492;28;20110;-75
2023/12/10 11:40:08;;;;;;;21.48;20.60;;;;;;;;;;5107721;28;20043;-81
2023/12/10 11:42:35;;;;;;;26.17;24.88;;;;;;;;;;5105288;28;20097;-79
2023/12/10 11:45:02;;;;;;;22.25;21.25;;;;;;;;;;5102121;28;20040;-77
2023/12/10 11:47:28;;;;;;;18.15;17.35;;;;;;;;;;5094399;28;20060;-81
2023/12/10 11:49:55;;;;;;;20.10;19.30;;;;;;;;;;5094069;28;20067;-80
2023/12/10 11:52:23;;;;;;;22.67;21.70;;;;;;;;;;5094709;28;20051;-80
2023/12/10 11:54:50;;;;;;;23.92;22.80;;;;;;;;;;5102265;28;20044;-80
2023/12/10 11:57:17;;;;;;;25.60;24.52;;;;;;;;;;5093537;28;20051;-79
2023/12/10 11:59:46;;;;;;;21.88;20.65;;;;;;;;;;5095982;28;20067;-74
2023/12/10 12:02:12;;;;;;;24.35;23.45;;;;;;;;;;5097796;28;20051;-77
2023/12/10 12:04:39;;;;;;;17.35;16.45;;;;;;;;;;5104157;28;20048;-81
2023/12/10 12:07:06;;;;;;;18.95;18.15;;;;;;;;;;5114641;28;20134;-79
2023/12/10 12:09:33;;;;;;;21.42;20.60;;;;;;;;;;5114618;28;20048;-79
2023/12/10 12:12:00;;;;;;;25.77;24.63;;;;;;;;;;5114772;28;20059;-78
2023/12/10 12:14:27;;;;;;;24.30;23.30;;;;;;;;;;5113823;28;20493;-79
2023/12/10 12:16:54;;;;;;;22.75;21.77;;;;;;;;;;5097249;28;20052;-80
2023/12/10 12:19:26;;;;;;;24.02;22.95;;;;;;;;;;5095058;28;20416;-80
2023/12/10 12:21:53;;;;;;;26.15;25.10;;;;;;;;;;5100456;28;20051;-79
2023/12/10 12:24:20;;;;;;;15.63;14.93;;;;;;;;;;5113641;28;20411;-78
2023/12/10 12:26:49;;;;;;;20.40;19.42;;;;;;;;;;5099287;28;20059;-80
2023/12/10 12:29:16;;;;;;;22.58;21.65;;;;;;;;;;5094146;28;20054;-79
2023/12/10 12:31:43;;;;;;;15.45;14.75;;;;;;;;;;5094320;28;20048;-79
2023/12/10 12:34:09;;;;;;;21.85;20.85;;;;;;;;;;5094511;28;20535;-80
2023/12/10 12:36:37;;;;;;;24.75;23.73;;;;;;;;;;5101635;28;20055;-79
2023/12/10 12:39:04;;;;;;;21.67;20.77;;;;;;;;;;5097629;28;20047;-80
2023/12/10 12:41:31;;;;;;;25.70;24.45;;;;;;;;;;5102559;28;20043;-79
2023/12/10 12:43:59;;;;;;;20.00;19.00;;;;;;;;;;5114258;28;20047;-80
2023/12/10 12:46:26;;;;;;;23.45;22.45;;;;;;;;;;5108529;28;20400;-82
2023/12/10 12:48:52;;;;;;;21.60;20.58;;;;;;;;;;5102894;28;20060;-79
2023/12/10 12:51:19;;;;;;;21.83;20.83;;;;;;;;;;5114200;28;20047;-80
2023/12/10 12:53:45;;;;;;;23.40;22.40;;;;;;;;;;5114063;28;20591;-80
2023/12/10 12:56:12;;;;;;;20.52;19.52;;;;;;;;;;5112040;28;20052;-78
2023/12/10 12:58:38;;;;;;;24.02;22.92;;;;;;;;;;5093042;28;20515;-81
2023/12/10 13:01:06;;;;;;;17.42;16.58;;;;;;;;;;5092999;28;20052;-80
2023/12/10 13:03:33;;;;;;;19.70;18.85;;;;;;;;;;5093619;28;20039;-80
2023/12/10 13:06:00;;;;;;;24.08;22.77;;;;;;;;;;5101441;28;20052;-80
2023/12/10 13:08:26;;;;;;;21.92;20.92;;;;;;;;;;5096791;28;20048;-79
2023/12/10 13:10:53;;;;;;;21.35;20.40;;;;;;;;;;5093224;28;20044;-80
2023/12/10 13:13:19;;;;;;;20.58;19.58;;;;;;;;;;5093319;28;20048;-79
2023/12/10 13:15:47;;;;;;;26.35;25.15;;;;;;;;;;5093046;28;20047;-79
2023/12/10 13:18:15;;;;;;;24.75;23.35;;;;;;;;;;5100759;28;20130;-81
2023/12/10 13:20:42;;;;;;;22.50;21.50;;;;;;;;;;5092968;28;20048;-81
2023/12/10 13:23:08;;;;;;;23.23;22.10;;;;;;;;;;5102503;28;20069;-81
2023/12/10 13:25:35;;;;;;;20.95;19.90;;;;;;;;;;5097081;28;20044;-79
2023/12/10 13:28:02;;;;;;;18.50;17.60;;;;;;;;;;5103579;28;20411;-80
2023/12/10 13:30:28;;;;;;;15.68;14.98;;;;;;;;;;5098672;28;20089;-79
2023/12/10 13:32:55;;;;;;;16.88;16.13;;;;;;;;;;5113243;28;20055;-79
2023/12/10 13:35:23;;;;;;;19.73;18.65;;;;;;;;;;5106897;28;20069;-79
2023/12/10 13:37:49;;;;;;;18.98;17.88;;;;;;;;;;5111841;28;20050;-76
2023/12/10 13:40:16;;;;;;;16.02;15.32;;;;;;;;;;5112706;28;20062;-77
2023/12/10 13:42:43;;;;;;;16.45;15.48;;;;;;;;;;5112330;28;20047;-78
2023/12/10 13:45:10;;;;;;;21.38;20.38;;;;;;;;;;5112470;28;20058;-78
2023/12/10 13:47:37;;;;;;;19.92;18.90;;;;;;;;;;5096604;28;20035;-78
2023/12/10 13:50:03;;;;;;;16.08;15.27;;;;;;;;;;5105535;28;20051;-76
2023/12/10 13:52:31;;;;;;;18.33;17.40;;;;;;;;;;5112426;28;20047;-80
2023/12/10 13:54:58;;;;;;;14.73;13.93;;;;;;;;;;5112645;28;20047;-79
2023/12/10 13:57:26;;;;;;;20.63;19.60;;;;;;;;;;5109308;28;20044;-80
2023/12/10 13:59:53;;;;;;;17.63;16.63;;;;;;;;;;5105937;28;20050;-79
2023/12/10 14:02:20;;;;;;;17.63;16.73;;;;;;;;;;5109462;28;20048;-79
2023/12/10 14:04:48;;;;;;;15.68;14.98;;;;;;;;;;5105841;28;20055;-81
2023/12/10 14:07:14;;;;;;;16.42;15.57;;;;;;;;;;5106669;28;20048;-80
2023/12/10 14:09:42;;;;;;;17.85;16.85;;;;;;;;;;5108410;28;20056;-79
2023/12/10 14:12:09;;;;;;;19.92;19.13;;;;;;;;;;5112847;28;20054;-79
2023/12/10 14:14:38;;;;;;;17.10;16.27;;;;;;;;;;5110461;27;20035;-79
2023/12/10 14:17:05;;;;;;;20.10;18.98;;;;;;;;;;5116015;27;20492;-79